M I D A S
Marine Information and Data Acquisition System
Tripno 1078 of the Zeeleeuw from 2006-04-28 07:14:02 to 2006-04-28 11:53:19
Back to CruiseResearch ActivitiesStationsMapUnderway DataData graphs

EquipmentUnitsComment
TimeDGPSUTC
LatitudeDGPSDM.mWGS84
LongitudeDGPSDM.mWGS84
HeadingGyrodeg 
SOGDGPSknotsSpeed over ground
COGDGPSdegCourse over ground
DepthEcho soundermeters200 kHz
Missing or incorrect values are displayed as -999
Navigation data collected by the RV Zeeleeuw from 2006-04-28 07:14:48 to 2006-04-28 12:05:21
Time Latitude Longitude Heading SOG COG Depth
2006-04-28 07:15:53 51°13.622 2°56.03 118.4 3.9 296 -999
2006-04-28 07:16:53 51°13.644 2°55.926 116.1 4 290 -999
2006-04-28 07:17:53 51°13.674 2°55.835 129.3 4.2 304 -999
2006-04-28 07:18:52 51°13.709 2°55.752 123.7 3.1 298 4.7
2006-04-28 07:19:53 51°13.72 2°55.755 71.4 1.8 65 4.7
2006-04-28 07:20:53 51°13.71 2°55.741 53.2 1.3 228 -999
2006-04-28 07:21:53 51°13.736 2°55.731 346.9 4.1 334 -999
2006-04-28 07:22:53 51°13.841 2°55.63 337 9.2 332 8.1
2006-04-28 07:23:52 51°13.985 2°55.519 341.1 10 336 8.2
2006-04-28 07:24:52 51°14.129 2°55.417 341.1 9.7 334 -999
2006-04-28 07:25:53 51°14.269 2°55.239 318.2 11.4 312 -999
2006-04-28 07:26:52 51°14.374 2°54.995 304.6 11.3 295 7.6
2006-04-28 07:27:52 51°14.412 2°54.661 288.9 13.4 281 8.1
2006-04-28 07:28:52 51°14.378 2°54.317 251 13.6 240 7.4
2006-04-28 07:29:52 51°14.263 2°54.003 251.8 13.8 246 7.2
2006-04-28 07:30:51 51°14.163 2°53.677 252.9 14 247 7.3
2006-04-28 07:31:52 51°14.059 2°53.334 246.7 14.3 240 7.5
2006-04-28 07:32:52 51°13.951 2°52.993 249.1 14.5 243 8.1
2006-04-28 07:33:52 51°13.833 2°52.653 249.5 14.7 243 8.2
2006-04-28 07:34:51 51°13.69 2°52.345 234.6 14.7 231 8.2
2006-04-28 07:35:49 51°13.573 2°52.016 249.5 14.7 243 8.4
2006-04-28 07:36:52 51°13.451 2°51.651 249.9 14.9 243 8.5
2006-04-28 07:37:52 51°13.339 2°51.298 248.9 14.9 243 8.6
2006-04-28 07:38:52 51°13.22 2°50.951 244.8 14.9 239 8.9
2006-04-28 07:39:52 51°13.092 2°50.613 247.5 14.9 241 9.1
2006-04-28 07:40:52 51°12.974 2°50.266 248.5 14.8 242 9.2
2006-04-28 07:41:52 51°12.848 2°49.93 243.7 14.7 240 9.4
2006-04-28 07:42:52 51°12.724 2°49.592 241.6 14.8 237 9.6
2006-04-28 07:43:52 51°12.606 2°49.25 246.1 14.9 242 9.7
2006-04-28 07:44:52 51°12.486 2°48.9 247.2 15.1 242 9.8
2006-04-28 07:45:52 51°12.365 2°48.546 246.4 15.3 241 10
2006-04-28 07:46:51 51°12.245 2°48.197 247.2 15.1 242 10.1
2006-04-28 07:47:52 51°12.12 2°47.843 244.5 15 239 10.1
2006-04-28 07:48:52 51°12.001 2°47.495 246.4 15 241 10.1
2006-04-28 07:49:52 51°11.889 2°47.135 247.1 15.1 242 10
2006-04-28 07:50:52 51°11.778 2°46.771 250 15.2 245 10.1
2006-04-28 07:51:52 51°11.667 2°46.412 247.6 15.2 242 10.1
2006-04-28 07:52:52 51°11.555 2°46.05 248 15.1 244 10
2006-04-28 07:53:52 51°11.45 2°45.691 249.6 15 245 9.9
2006-04-28 07:54:52 51°11.367 2°45.317 257.2 15 251 9.9
2006-04-28 07:55:52 51°11.289 2°44.944 257.7 15.1 252 10
2006-04-28 07:56:51 51°11.205 2°44.57 257.8 15 253 10
2006-04-28 07:57:52 51°11.14 2°44.178 262 15.1 256 10.2
2006-04-28 07:58:52 51°11.072 2°43.791 260.6 15.2 255 10.3
2006-04-28 07:59:52 51°11.007 2°43.403 260.5 15.1 255 10.5
2006-04-28 08:00:52 51°10.943 2°43.016 261.7 15 255 10.6
2006-04-28 08:01:52 51°10.876 2°42.632 261.2 15.1 256 10.6
2006-04-28 08:02:52 51°10.808 2°42.248 261.1 15 256 10.6
2006-04-28 08:03:52 51°10.745 2°41.866 260.2 14.9 255 10.8
2006-04-28 08:04:52 51°10.684 2°41.484 260.7 14.8 256 10.9
2006-04-28 08:05:52 51°10.623 2°41.105 259.1 14.8 255 10.9
2006-04-28 08:06:52 51°10.56 2°40.728 259.7 14.7 255 11.1
2006-04-28 08:07:52 51°10.496 2°40.354 258.9 14.7 255 11.6
2006-04-28 08:08:52 51°10.437 2°39.973 261.2 14.7 256 12.1
2006-04-28 08:09:51 51°10.378 2°39.603 260.3 14.8 256 12.7
2006-04-28 08:10:52 51°10.318 2°39.218 261.2 14.7 256 13.4
2006-04-28 08:11:52 51°10.255 2°38.84 260.5 14.8 256 13.9
2006-04-28 08:12:52 51°10.194 2°38.461 260.7 14.8 257 14.7
2006-04-28 08:13:51 51°10.135 2°38.088 259.6 14.9 256 15.1
2006-04-28 08:14:51 51°10.074 2°37.706 259.6 14.9 256 15.6
2006-04-28 08:15:52 51°10.011 2°37.316 261.2 14.9 256 16
2006-04-28 08:16:51 51°9.956 2°36.941 262.1 14.8 260 16.1
2006-04-28 08:17:52 51°9.95 2°36.548 276.7 14.7 270 16
2006-04-28 08:18:52 51°9.969 2°36.169 286.6 14.1 281 16.4
2006-04-28 08:19:52 51°10.039 2°35.822 303 13.6 299 15.2
2006-04-28 08:20:52 51°10.208 2°35.635 351.7 12.1 346 9.5
2006-04-28 08:21:50 51°10.398 2°35.65 22.5 11.8 22 9.7
2006-04-28 08:22:52 51°10.571 2°35.81 36 11.7 32 9.4
2006-04-28 08:23:51 51°10.738 2°35.96 35.3 11.7 32 9.3
2006-04-28 08:24:52 51°10.908 2°36.123 33.5 11.8 30 9.9
2006-04-28 08:25:52 51°11.073 2°36.288 34.9 11.7 31 10.3
2006-04-28 08:26:52 51°11.241 2°36.444 36.2 11.7 32 10.2
2006-04-28 08:27:52 51°11.407 2°36.605 34.3 11.6 30 10.4
2006-04-28 08:28:52 51°11.57 2°36.768 35 11.7 31 10.5
2006-04-28 08:29:52 51°11.736 2°36.93 36.4 11.7 32 10.4
2006-04-28 08:30:52 51°11.906 2°37.077 34.2 11.6 30 10.2
2006-04-28 08:31:52 51°12.077 2°37.224 33 11.7 29 10.4
2006-04-28 08:32:52 51°12.246 2°37.376 32.7 11.6 28 10.3
2006-04-28 08:33:51 51°12.413 2°37.521 34.4 11.6 29 10.8
2006-04-28 08:34:51 51°12.584 2°37.669 33.6 11.7 28 11
2006-04-28 08:35:52 51°12.757 2°37.818 34.4 11.7 30 11.4
2006-04-28 08:36:52 51°12.928 2°37.965 33.9 11.7 28 12.1
2006-04-28 08:37:52 51°13.101 2°38.11 34.1 11.8 30 12.6
2006-04-28 08:38:52 51°13.262 2°38.287 40.6 11.8 40 12.9
2006-04-28 08:39:52 51°13.342 2°38.569 73.6 11.8 74 13.3
2006-04-28 08:40:52 51°13.47 2°38.788 37.1 11.6 32 13.1
2006-04-28 08:41:52 51°13.657 2°38.887 18.7 12 11 13.5
2006-04-28 08:42:52 51°13.859 2°38.871 0.7 12.3 350 12.6
2006-04-28 08:43:52 51°14.057 2°38.779 352.1 12.3 344 10.1
2006-04-28 08:44:52 51°14.222 2°38.568 324.4 13.2 314 14.9
2006-04-28 08:45:51 51°14.354 2°38.301 304.2 13.5 289 16.9
2006-04-28 08:46:52 51°14.332 2°37.928 257.6 14.8 249 15.6
2006-04-28 08:47:52 51°14.222 2°37.575 239.7 15.1 236 15.2
2006-04-28 08:48:52 51°14.075 2°37.25 237.3 15.2 235 16.6
2006-04-28 08:49:52 51°13.934 2°36.92 238.4 15.1 236 18.2
2006-04-28 08:50:52 51°13.796 2°36.588 238.1 15.1 236 19.1
2006-04-28 08:51:52 51°13.659 2°36.255 239.6 14.9 237 18.7
2006-04-28 08:52:52 51°13.522 2°35.927 238.6 14.8 236 15.5
2006-04-28 08:53:52 51°13.383 2°35.6 239.6 14.9 236 16.5
2006-04-28 08:54:52 51°13.243 2°35.273 237.9 14.9 235 16.1
2006-04-28 08:55:52 51°13.102 2°34.949 238.9 15 236 16.2
2006-04-28 08:56:52 51°12.973 2°34.61 245.2 14.9 240 16.7
2006-04-28 08:57:52 51°12.851 2°34.266 244.5 15 240 16.3
2006-04-28 08:58:52 51°12.739 2°33.915 250.6 14.9 245 16
2006-04-28 08:59:52 51°12.632 2°33.562 250.9 14.8 245 15.1
2006-04-28 09:00:52 51°12.527 2°33.212 250.6 14.6 244 14.7
2006-04-28 09:01:52 51°12.421 2°32.867 250.5 14.4 245 14.4
2006-04-28 09:02:52 51°12.315 2°32.522 251.1 14.5 244 15.1
2006-04-28 09:03:52 51°12.204 2°32.178 250.4 14.6 244 15.9
2006-04-28 09:04:52 51°12.098 2°31.831 254.9 14.6 247 16.7
2006-04-28 09:05:52 51°12.012 2°31.468 257.6 14.6 249 18.2
2006-04-28 09:06:52 51°11.921 2°31.107 256.8 14.8 249 20.1
2006-04-28 09:07:52 51°11.831 2°30.739 256.9 14.9 248 20.4
2006-04-28 09:08:52 51°11.739 2°30.372 256.5 14.9 247 21.1
2006-04-28 09:09:52 51°11.652 2°30.004 259.7 14.9 252 21.9
2006-04-28 09:10:52 51°11.574 2°29.628 260.5 15 252 22.2
2006-04-28 09:11:52 51°11.496 2°29.251 259.6 15 251 23.2
2006-04-28 09:12:52 51°11.417 2°28.875 259.3 15 252 22.6
2006-04-28 09:13:52 51°11.34 2°28.499 258.6 14.9 252 22.5
2006-04-28 09:14:52 51°11.265 2°28.12 260.1 15.1 254 22.7
2006-04-28 09:15:51 51°11.219 2°27.744 274.3 14.6 267 21
2006-04-28 09:16:52 51°11.209 2°27.352 275.1 14.5 266 23
2006-04-28 09:17:51 51°11.199 2°26.978 274.4 14.4 268 21.6
2006-04-28 09:18:51 51°11.194 2°26.6 275.6 14 272 18.7
2006-04-28 09:19:52 51°11.241 2°26.243 295.1 13.3 289 14.6
2006-04-28 09:20:52 51°11.33 2°25.924 301.6 13.2 293 10.8
2006-04-28 09:21:52 51°11.466 2°25.66 329.4 12.8 321 19.8
2006-04-28 09:22:52 51°11.661 2°25.587 10.8 12.2 3 22.7
2006-04-28 09:23:52 51°11.857 2°25.656 24.3 11.9 18 23.9
2006-04-28 09:24:52 51°12.034 2°25.795 34.8 11.9 29 24.9
2006-04-28 09:25:52 51°12.206 2°25.951 39.3 11.8 35 24.9
2006-04-28 09:26:52 51°12.368 2°26.123 37.7 11.8 32 25.7
2006-04-28 09:27:52 51°12.533 2°26.291 37.3 11.9 31 25.4
2006-04-28 09:28:52 51°12.701 2°26.455 38.1 11.8 33 24.6
2006-04-28 09:29:52 51°12.867 2°26.621 37.2 11.8 31 24.6
2006-04-28 09:30:52 51°13.027 2°26.8 42.4 11.7 38 25
2006-04-28 09:31:52 51°13.182 2°26.984 42 11.6 37 25
2006-04-28 09:32:52 51°13.335 2°27.171 43.1 11.6 40 25.6
2006-04-28 09:33:52 51°13.48 2°27.375 44.9 11.6 42 25.6
2006-04-28 09:34:52 51°13.433 2°27.613 145 12.7 159 23.7
2006-04-28 09:35:52 51°13.236 2°27.468 232.8 14.3 229 23.3
2006-04-28 09:36:52 51°13.184 2°27.243 280.6 6.1 265 24.7
2006-04-28 09:37:51 51°13.182 2°27.127 301.7 3.3 270 25.3
2006-04-28 09:38:52 51°13.169 2°27.073 307.3 2 241 25.5
2006-04-28 09:39:52 51°13.152 2°27.029 312.9 1.9 235 25.3
2006-04-28 09:40:52 51°13.134 2°26.99 315.4 1.8 232 25.2
2006-04-28 09:41:52 51°13.117 2°26.955 318.6 1.7 229 25.2
2006-04-28 09:42:52 51°13.096 2°26.921 316.5 1.7 227 25.4
2006-04-28 09:43:52 51°13.077 2°26.89 316.8 1.7 224 25.7
2006-04-28 09:44:51 51°13.057 2°26.86 316.8 1.7 222 25.6
2006-04-28 09:45:52 51°13.036 2°26.831 316.8 1.7 219 25.6
2006-04-28 09:46:52 51°13.014 2°26.804 314.5 1.7 218 25.6
2006-04-28 09:47:51 51°12.992 2°26.777 310.4 1.7 219 25
2006-04-28 09:48:51 51°12.97 2°26.75 307.4 1.7 218 25
2006-04-28 09:49:52 51°12.948 2°26.723 304.7 1.7 217 25.2
2006-04-28 09:50:52 51°12.926 2°26.696 302.2 1.7 216 25.2
2006-04-28 09:51:52 51°12.904 2°26.67 300.8 1.7 215 25.3
2006-04-28 09:52:52 51°12.882 2°26.645 298.3 1.6 216 25.4
2006-04-28 09:53:51 51°12.86 2°26.621 297.1 1.6 215 25.4
2006-04-28 09:54:51 51°12.839 2°26.598 294.9 1.6 214 25.5
2006-04-28 09:55:52 51°12.816 2°26.574 291.7 1.6 213 25.2
2006-04-28 09:56:52 51°12.794 2°26.551 288.4 1.6 213 25.3
2006-04-28 09:57:52 51°12.772 2°26.528 288.1 1.5 214 25.5
2006-04-28 09:58:52 51°12.752 2°26.505 290.7 1.5 213 25.3
2006-04-28 09:59:52 51°12.733 2°26.48 294.7 1.8 241 25.5
2006-04-28 10:00:52 51°12.768 2°26.393 337.5 6.5 328 25.8
2006-04-28 10:01:52 51°12.907 2°26.437 37.7 10.7 36 26.2
2006-04-28 10:02:52 51°13.065 2°26.617 39.9 12 36 26.2
2006-04-28 10:03:52 51°13.221 2°26.813 42 12 39 26.4
2006-04-28 10:04:52 51°13.376 2°27.015 41.7 12 39 26.7
2006-04-28 10:05:52 51°13.533 2°27.213 41.5 11.9 38 26.8
2006-04-28 10:06:52 51°13.688 2°27.412 41.5 12 39 26.4
2006-04-28 10:07:52 51°13.843 2°27.611 41.8 12 39 26.1
2006-04-28 10:08:52 51°13.999 2°27.81 41.7 12 38 27.3
2006-04-28 10:09:53 51°14.158 2°28.011 41.8 12 37 27.3
2006-04-28 10:10:52 51°14.311 2°28.209 42.9 12.1 39 28
2006-04-28 10:11:52 51°14.469 2°28.414 42.7 12.1 38 28.4
2006-04-28 10:12:52 51°14.622 2°28.614 42.9 12.1 39 28.5
2006-04-28 10:13:52 51°14.78 2°28.813 41.6 12.1 39 28.1
2006-04-28 10:14:51 51°14.936 2°29.014 42.7 12.2 40 28.7
2006-04-28 10:15:52 51°15.093 2°29.229 42.3 12.3 41 28.6
2006-04-28 10:16:52 51°15.25 2°29.441 41.5 12.4 41 29.2
2006-04-28 10:17:52 51°15.406 2°29.657 43.1 12.6 41 29.1
2006-04-28 10:18:52 51°15.564 2°29.875 42.2 12.6 41 29.5
2006-04-28 10:19:52 51°15.724 2°30.09 41.4 12.5 40 29.2
2006-04-28 10:20:52 51°15.882 2°30.308 42 12.6 41 29.6
2006-04-28 10:21:52 51°16.04 2°30.524 41.3 12.6 40 29.6
2006-04-28 10:22:52 51°16.199 2°30.74 41.9 12.5 40 29.4
2006-04-28 10:23:52 51°16.358 2°30.952 41.5 12.5 39 29.5
2006-04-28 10:24:52 51°16.517 2°31.166 43.1 12.4 41 29
2006-04-28 10:25:53 51°16.676 2°31.383 45.2 12.4 42 29.2
2006-04-28 10:26:52 51°16.828 2°31.597 44.5 12.4 42 29
2006-04-28 10:27:52 51°16.983 2°31.814 43.6 12.4 40 28.4
2006-04-28 10:28:53 51°17.141 2°32.042 45.2 12.7 43 27.9
2006-04-28 10:29:52 51°17.294 2°32.268 44.3 12.8 43 26.9
2006-04-28 10:30:53 51°17.453 2°32.501 44.3 12.8 43 27.2
2006-04-28 10:31:52 51°17.606 2°32.731 43.5 12.9 42 27.7
2006-04-28 10:32:52 51°17.765 2°32.965 43.3 13 42 26
2006-04-28 10:33:52 51°17.924 2°33.201 43.5 13.1 42 24.6
2006-04-28 10:34:52 51°18.082 2°33.441 44.2 13.1 43 24.1
2006-04-28 10:35:52 51°18.241 2°33.681 45 13.1 45 24.7
2006-04-28 10:36:52 51°18.398 2°33.925 45.2 13.2 45 21.7
2006-04-28 10:37:52 51°18.546 2°34.184 47.8 13.2 47 22.4
2006-04-28 10:38:51 51°18.692 2°34.438 48.4 13.3 48 21.3
2006-04-28 10:39:52 51°18.842 2°34.703 47.8 13.1 47 21.1
2006-04-28 10:40:52 51°18.986 2°34.966 48.4 13.1 48 23.4
2006-04-28 10:41:53 51°19.135 2°35.231 47.9 13.2 48 22.5
2006-04-28 10:42:52 51°19.28 2°35.488 48.9 13.3 50 22.9
2006-04-28 10:43:51 51°19.424 2°35.746 48 13.2 48 22.5
2006-04-28 10:44:52 51°19.572 2°36.009 48.1 13.1 49 22.9
2006-04-28 10:45:52 51°19.716 2°36.267 48.7 13 49 23.1
2006-04-28 10:46:52 51°19.861 2°36.519 46.6 12.9 46 23.2
2006-04-28 10:47:52 51°20.011 2°36.764 45.7 12.8 45 23.5
2006-04-28 10:48:52 51°20.16 2°37.009 46.4 12.8 45 23.2
2006-04-28 10:49:52 51°20.283 2°37.284 64.9 12.9 65 24.1
2006-04-28 10:50:52 51°20.373 2°37.598 65.3 13.1 65 24.5
2006-04-28 10:51:52 51°20.442 2°37.927 80 13.3 79 24.9
2006-04-28 10:52:52 51°20.478 2°38.275 80.5 13.4 81 25.5
2006-04-28 10:53:52 51°20.491 2°38.632 92.4 13.6 92 25.4
2006-04-28 10:54:52 51°20.49 2°38.995 91.7 13.7 91 26.5
2006-04-28 10:55:52 51°20.488 2°39.358 90.3 13.7 89 26.7
2006-04-28 10:56:52 51°20.488 2°39.723 91.3 13.8 90 28.3
2006-04-28 10:57:52 51°20.49 2°40.088 91.4 13.7 90 29.4
2006-04-28 10:58:52 51°20.493 2°40.452 91.2 13.7 90 28.5
2006-04-28 10:59:52 51°20.499 2°40.818 90 13.9 88 29.5
2006-04-28 11:00:52 51°20.507 2°41.186 89.3 13.8 87 28.7
2006-04-28 11:01:52 51°20.515 2°41.56 91.3 14.2 90 22.7
2006-04-28 11:02:52 51°20.51 2°41.939 92.9 14.3 90 21.7
2006-04-28 11:03:52 51°20.508 2°42.319 91.7 14.3 91 19.5
2006-04-28 11:04:52 51°20.505 2°42.699 92 14.3 91 24.7
2006-04-28 11:05:52 51°20.505 2°43.077 91.9 14.1 90 26.8
2006-04-28 11:06:52 51°20.506 2°43.454 92.1 14 90 28.6
2006-04-28 11:07:52 51°20.508 2°43.825 92.7 13.9 90 29
2006-04-28 11:08:52 51°20.511 2°44.198 91.4 14.1 89 28.4
2006-04-28 11:09:52 51°20.515 2°44.573 92.6 14.2 89 28.8
2006-04-28 11:10:52 51°20.511 2°44.952 94.5 14.2 91 28.1
2006-04-28 11:11:52 51°20.506 2°45.327 94.9 14.1 93 27.1
2006-04-28 11:12:52 51°20.504 2°45.704 94.6 14.2 90 25.6
2006-04-28 11:13:52 51°20.504 2°46.084 94.9 14.2 91 23.4
2006-04-28 11:14:52 51°20.489 2°46.463 99.2 14.2 95 21.5
2006-04-28 11:15:52 51°20.469 2°46.844 98.1 14.4 94 19.1
2006-04-28 11:16:52 51°20.449 2°47.226 100.2 14.4 96 19.8
2006-04-28 11:17:52 51°20.424 2°47.607 103.7 14.4 100 21
2006-04-28 11:18:52 51°20.345 2°47.96 124.1 14.2 117 23.5
2006-04-28 11:19:52 51°20.215 2°48.26 135 13.4 129 24.7
2006-04-28 11:20:52 51°20.077 2°48.54 134.2 13.4 127 24.6
2006-04-28 11:21:52 51°19.94 2°48.821 134.5 13.4 128 23.7
2006-04-28 11:22:52 51°19.798 2°49.102 134.2 13.7 128 21.1
2006-04-28 11:23:52 51°19.66 2°49.39 133.7 13.8 126 18.6
2006-04-28 11:24:52 51°19.504 2°49.653 148.7 13.6 141 16.6
2006-04-28 11:25:52 51°19.328 2°49.878 148.2 13.7 140 14.9
2006-04-28 11:26:51 51°19.15 2°50.092 156.6 13.7 149 14.3
2006-04-28 11:27:52 51°18.961 2°50.295 154.6 13.4 145 15.9
2006-04-28 11:28:52 51°18.782 2°50.507 153.3 13.4 142 17
2006-04-28 11:29:52 51°18.605 2°50.717 154.9 13.2 144 17
2006-04-28 11:30:52 51°18.426 2°50.928 153.9 13.5 144 16.4
2006-04-28 11:31:52 51°18.244 2°51.145 153.1 13.9 143 15.4
2006-04-28 11:32:52 51°18.062 2°51.357 151.9 13.4 143 14.2
2006-04-28 11:33:51 51°17.892 2°51.581 152.7 13.4 141 13.2
2006-04-28 11:34:52 51°17.707 2°51.789 152.7 13.5 145 12.9
2006-04-28 11:35:52 51°17.522 2°51.978 158.5 13.1 149 13.2
2006-04-28 11:36:52 51°17.333 2°52.153 160.2 13.3 149 13.3
2006-04-28 11:37:52 51°17.141 2°52.314 163.8 13 152 13.1
2006-04-28 11:38:52 51°16.951 2°52.484 161 13.1 150 12.3
2006-04-28 11:39:51 51°16.764 2°52.643 163.1 13.1 151 12.7
2006-04-28 11:40:52 51°16.569 2°52.815 163.8 13.1 152 14.5
2006-04-28 11:41:52 51°16.377 2°52.98 161.8 13.2 151 14.9
2006-04-28 11:42:52 51°16.18 2°53.136 164.4 13.2 153 14.7
2006-04-28 11:43:52 51°15.985 2°53.298 163.1 13 151 14.5
2006-04-28 11:44:52 51°15.792 2°53.46 162.4 13 151 14
2006-04-28 11:45:52 51°15.603 2°53.626 160.3 13 150 13.4
2006-04-28 11:46:52 51°15.414 2°53.788 163.3 12.8 152 13
2006-04-28 11:47:52 51°15.227 2°53.96 161.8 13 152 12.4
2006-04-28 11:48:52 51°15.044 2°54.142 158.9 13 147 11.9
2006-04-28 11:49:52 51°14.86 2°54.324 158.4 13.1 147 12.2
2006-04-28 11:50:52 51°14.698 2°54.546 148.2 12.9 135 12.7
2006-04-28 11:51:52 51°14.542 2°54.781 148.9 12.9 137 12.7
2006-04-28 11:52:52 51°14.391 2°55.034 140.5 13.3 130 13.2
2006-04-28 11:53:52 51°14.265 2°55.258 134.8 9.8 132 13.1
2006-04-28 11:54:52 51°14.16 2°55.385 153.6 7 150 13.2
2006-04-28 11:55:52 51°14.06 2°55.457 158.5 6.5 156 -999
2006-04-28 11:56:52 51°13.961 2°55.53 158.1 6.6 156 13.2
2006-04-28 11:57:53 51°13.858 2°55.606 156.3 6.7 154 -999
2006-04-28 11:58:52 51°13.765 2°55.692 146.6 6.5 143 13.4
2006-04-28 11:59:52 51°13.698 2°55.8 130.7 5.3 128 13
2006-04-28 12:00:53 51°13.65 2°55.911 125.6 4.7 123 -999
2006-04-28 12:01:52 51°13.619 2°56.002 113.9 3.4 112 12.3
2006-04-28 12:02:56 51°13.609 2°56.069 100.9 1.5 100 -999
2006-04-28 12:03:56 51°13.605 2°56.093 115.1 0.6 115 -999
2006-04-28 12:04:56 51°13.602 2°56.097 119.6 0.4 108 -999